sensor_id;sensor_type;location;lat;lon;timestamp;temperature;humidity
70107;DHT22;57473;37.508;15.080;2023-02-28T00:01:34;12.00;68.40
70107;DHT22;57473;37.508;15.080;2023-02-28T00:04:01;12.00;68.90
70107;DHT22;57473;37.508;15.080;2023-02-28T00:06:29;12.00;68.80
70107;DHT22;57473;37.508;15.080;2023-02-28T00:08:56;12.00;69.10
70107;DHT22;57473;37.508;15.080;2023-02-28T00:11:24;12.00;69.10
70107;DHT22;57473;37.508;15.080;2023-02-28T00:13:51;12.00;68.60
70107;DHT22;57473;37.508;15.080;2023-02-28T00:16:20;12.10;68.90
70107;DHT22;57473;37.508;15.080;2023-02-28T00:18:49;12.10;68.30
70107;DHT22;57473;37.508;15.080;2023-02-28T00:21:17;12.10;68.70
70107;DHT22;57473;37.508;15.080;2023-02-28T00:23:45;12.10;68.70
70107;DHT22;57473;37.508;15.080;2023-02-28T00:26:13;12.00;69.10
70107;DHT22;57473;37.508;15.080;2023-02-28T00:28:44;12.00;69.30
70107;DHT22;57473;37.508;15.080;2023-02-28T00:31:11;11.90;69.20
70107;DHT22;57473;37.508;15.080;2023-02-28T00:33:39;11.90;68.90
70107;DHT22;57473;37.508;15.080;2023-02-28T00:36:09;11.90;68.60
70107;DHT22;57473;37.508;15.080;2023-02-28T00:38:37;11.90;68.30
70107;DHT22;57473;37.508;15.080;2023-02-28T00:41:05;11.90;68.20
70107;DHT22;57473;37.508;15.080;2023-02-28T00:43:38;11.90;68.50
70107;DHT22;57473;37.508;15.080;2023-02-28T00:46:06;11.90;68.30
70107;DHT22;57473;37.508;15.080;2023-02-28T00:48:34;12.00;67.60
70107;DHT22;57473;37.508;15.080;2023-02-28T00:51:02;12.00;67.50
70107;DHT22;57473;37.508;15.080;2023-02-28T00:53:30;12.00;67.90
70107;DHT22;57473;37.508;15.080;2023-02-28T00:55:59;12.00;68.30
70107;DHT22;57473;37.508;15.080;2023-02-28T00:58:27;12.00;68.70
70107;DHT22;57473;37.508;15.080;2023-02-28T01:00:54;11.90;68.70
70107;DHT22;57473;37.508;15.080;2023-02-28T01:03:22;11.90;68.90
70107;DHT22;57473;37.508;15.080;2023-02-28T01:05:50;12.00;69.10
70107;DHT22;57473;37.508;15.080;2023-02-28T01:08:17;12.00;67.70
70107;DHT22;57473;37.508;15.080;2023-02-28T01:10:45;12.10;66.80
70107;DHT22;57473;37.508;15.080;2023-02-28T01:13:12;12.10;67.90
70107;DHT22;57473;37.508;15.080;2023-02-28T01:15:45;12.20;68.10
70107;DHT22;57473;37.508;15.080;2023-02-28T01:18:15;12.20;68.30
70107;DHT22;57473;37.508;15.080;2023-02-28T01:20:42;12.20;67.80
70107;DHT22;57473;37.508;15.080;2023-02-28T01:23:10;12.10;68.30
70107;DHT22;57473;37.508;15.080;2023-02-28T01:25:38;12.10;68.80
70107;DHT22;57473;37.508;15.080;2023-02-28T01:28:05;12.10;69.10
70107;DHT22;57473;37.508;15.080;2023-02-28T01:30:33;12.10;67.60
70107;DHT22;57473;37.508;15.080;2023-02-28T01:33:01;12.20;66.80
70107;DHT22;57473;37.508;15.080;2023-02-28T01:35:28;12.20;66.10
70107;DHT22;57473;37.508;15.080;2023-02-28T01:37:59;12.20;65.80
70107;DHT22;57473;37.508;15.080;2023-02-28T01:40:41;12.20;66.50
70107;DHT22;57473;37.508;15.080;2023-02-28T01:43:25;12.20;67.80
70107;DHT22;57473;37.508;15.080;2023-02-28T01:45:56;12.20;68.50
70107;DHT22;57473;37.508;15.080;2023-02-28T01:48:34;12.20;67.90
70107;DHT22;57473;37.508;15.080;2023-02-28T01:51:08;12.20;67.10
70107;DHT22;57473;37.508;15.080;2023-02-28T01:53:41;12.20;67.70
70107;DHT22;57473;37.508;15.080;2023-02-28T01:56:11;12.20;66.30
70107;DHT22;57473;37.508;15.080;2023-02-28T01:58:52;12.30;66.30
70107;DHT22;57473;37.508;15.080;2023-02-28T02:01:25;12.30;67.40
70107;DHT22;57473;37.508;15.080;2023-02-28T02:03:59;12.30;67.10
70107;DHT22;57473;37.508;15.080;2023-02-28T02:06:38;12.30;67.70
70107;DHT22;57473;37.508;15.080;2023-02-28T02:09:09;12.30;67.10
70107;DHT22;57473;37.508;15.080;2023-02-28T02:11:37;12.30;67.50
70107;DHT22;57473;37.508;15.080;2023-02-28T02:14:16;12.20;67.80
70107;DHT22;57473;37.508;15.080;2023-02-28T02:39:00;12.40;63.40
70107;DHT22;57473;37.508;15.080;2023-02-28T02:41:51;12.40;64.60
70107;DHT22;57473;37.508;15.080;2023-02-28T02:44:40;12.40;64.70
70107;DHT22;57473;37.508;15.080;2023-02-28T02:47:17;12.50;64.20
70107;DHT22;57473;37.508;15.080;2023-02-28T02:49:55;12.50;64.30
70107;DHT22;57473;37.508;15.080;2023-02-28T02:52:30;12.50;64.10
70107;DHT22;57473;37.508;15.080;2023-02-28T02:55:00;12.40;64.10
70107;DHT22;57473;37.508;15.080;2023-02-28T02:57:35;12.40;64.70
70107;DHT22;57473;37.508;15.080;2023-02-28T03:00:05;12.40;65.00
70107;DHT22;57473;37.508;15.080;2023-02-28T03:02:37;12.40;64.80
70107;DHT22;57473;37.508;15.080;2023-02-28T03:05:12;12.30;65.20
70107;DHT22;57473;37.508;15.080;2023-02-28T03:07:42;12.30;65.50
70107;DHT22;57473;37.508;15.080;2023-02-28T03:15:49;12.40;66.10
70107;DHT22;57473;37.508;15.080;2023-02-28T03:24:22;12.50;65.70
70107;DHT22;57473;37.508;15.080;2023-02-28T03:27:03;12.50;66.10
70107;DHT22;57473;37.508;15.080;2023-02-28T03:30:21;12.50;66.40
70107;DHT22;57473;37.508;15.080;2023-02-28T03:32:25;12.40;66.50
70107;DHT22;57473;37.508;15.080;2023-02-28T03:35:02;12.50;66.70
70107;DHT22;57473;37.508;15.080;2023-02-28T03:37:36;12.50;66.90
70107;DHT22;57473;37.508;15.080;2023-02-28T03:40:11;12.50;67.40
70107;DHT22;57473;37.508;15.080;2023-02-28T03:42:43;12.50;67.80
70107;DHT22;57473;37.508;15.080;2023-02-28T03:45:18;12.50;67.40
70107;DHT22;57473;37.508;15.080;2023-02-28T03:47:49;12.50;67.50
70107;DHT22;57473;37.508;15.080;2023-02-28T03:50:24;12.50;67.70
70107;DHT22;57473;37.508;15.080;2023-02-28T03:53:00;12.40;68.00
70107;DHT22;57473;37.508;15.080;2023-02-28T03:55:37;12.50;68.50
70107;DHT22;57473;37.508;15.080;2023-02-28T04:01:15;12.60;69.30
70107;DHT22;57473;37.508;15.080;2023-02-28T04:03:44;12.60;69.00
70107;DHT22;57473;37.508;15.080;2023-02-28T04:06:19;12.60;68.80
70107;DHT22;57473;37.508;15.080;2023-02-28T04:08:48;12.70;69.60
70107;DHT22;57473;37.508;15.080;2023-02-28T04:11:27;12.60;69.40
70107;DHT22;57473;37.508;15.080;2023-02-28T04:13:57;12.50;69.60
70107;DHT22;57473;37.508;15.080;2023-02-28T04:16:25;12.60;68.80
70107;DHT22;57473;37.508;15.080;2023-02-28T04:19:03;12.60;68.50
70107;DHT22;57473;37.508;15.080;2023-02-28T04:21:40;12.60;67.10
70107;DHT22;57473;37.508;15.080;2023-02-28T04:24:10;12.60;64.70
70107;DHT22;57473;37.508;15.080;2023-02-28T04:26:43;12.60;65.10
70107;DHT22;57473;37.508;15.080;2023-02-28T04:29:13;12.60;64.60
70107;DHT22;57473;37.508;15.080;2023-02-28T04:31:40;12.60;64.10
70107;DHT22;57473;37.508;15.080;2023-02-28T04:34:08;12.70;63.70
70107;DHT22;57473;37.508;15.080;2023-02-28T04:36:35;12.80;63.60
70107;DHT22;57473;37.508;15.080;2023-02-28T04:39:02;12.80;63.40
70107;DHT22;57473;37.508;15.080;2023-02-28T04:41:31;12.80;62.80
70107;DHT22;57473;37.508;15.080;2023-02-28T04:43:59;12.80;61.90
70107;DHT22;57473;37.508;15.080;2023-02-28T04:46:26;12.90;61.00
70107;DHT22;57473;37.508;15.080;2023-02-28T04:48:53;13.00;61.20
70107;DHT22;57473;37.508;15.080;2023-02-28T04:51:21;13.00;60.80
70107;DHT22;57473;37.508;15.080;2023-02-28T04:53:49;13.00;60.60
70107;DHT22;57473;37.508;15.080;2023-02-28T04:56:17;13.00;60.70
70107;DHT22;57473;37.508;15.080;2023-02-28T04:58:45;13.10;60.80
70107;DHT22;57473;37.508;15.080;2023-02-28T05:01:29;13.00;61.30
70107;DHT22;57473;37.508;15.080;2023-02-28T05:03:58;13.10;61.50
70107;DHT22;57473;37.508;15.080;2023-02-28T05:06:27;13.10;61.60
70107;DHT22;57473;37.508;15.080;2023-02-28T05:08:55;13.10;61.90
70107;DHT22;57473;37.508;15.080;2023-02-28T05:11:25;13.00;62.40
70107;DHT22;57473;37.508;15.080;2023-02-28T05:13:53;13.00;63.30
70107;DHT22;57473;37.508;15.080;2023-02-28T05:16:21;13.00;64.20
70107;DHT22;57473;37.508;15.080;2023-02-28T05:18:48;13.10;64.10
70107;DHT22;57473;37.508;15.080;2023-02-28T05:21:31;13.10;64.20
70107;DHT22;57473;37.508;15.080;2023-02-28T05:24:01;13.20;64.60
70107;DHT22;57473;37.508;15.080;2023-02-28T05:26:28;13.20;64.50
70107;DHT22;57473;37.508;15.080;2023-02-28T05:28:56;13.20;65.20
70107;DHT22;57473;37.508;15.080;2023-02-28T05:31:24;13.20;65.70
70107;DHT22;57473;37.508;15.080;2023-02-28T05:33:51;13.20;66.20
70107;DHT22;57473;37.508;15.080;2023-02-28T05:36:19;13.10;67.00
70107;DHT22;57473;37.508;15.080;2023-02-28T05:38:47;13.10;68.60
70107;DHT22;57473;37.508;15.080;2023-02-28T05:41:15;13.10;69.50
70107;DHT22;57473;37.508;15.080;2023-02-28T05:43:43;13.10;70.30
70107;DHT22;57473;37.508;15.080;2023-02-28T05:46:12;13.20;70.50
70107;DHT22;57473;37.508;15.080;2023-02-28T05:48:41;13.20;70.60
70107;DHT22;57473;37.508;15.080;2023-02-28T05:51:09;13.20;69.90
70107;DHT22;57473;37.508;15.080;2023-02-28T05:53:36;13.10;69.70
70107;DHT22;57473;37.508;15.080;2023-02-28T05:56:04;13.10;70.70
70107;DHT22;57473;37.508;15.080;2023-02-28T05:58:32;13.10;71.30
70107;DHT22;57473;37.508;15.080;2023-02-28T06:01:00;13.00;71.60
70107;DHT22;57473;37.508;15.080;2023-02-28T06:03:28;13.10;72.80
70107;DHT22;57473;37.508;15.080;2023-02-28T06:05:55;13.10;72.60
70107;DHT22;57473;37.508;15.080;2023-02-28T06:08:22;13.20;73.20
70107;DHT22;57473;37.508;15.080;2023-02-28T06:10:49;13.20;73.40
70107;DHT22;57473;37.508;15.080;2023-02-28T06:13:17;13.30;73.10
70107;DHT22;57473;37.508;15.080;2023-02-28T06:15:44;13.30;73.00
70107;DHT22;57473;37.508;15.080;2023-02-28T06:18:11;13.40;73.70
70107;DHT22;57473;37.508;15.080;2023-02-28T06:20:39;13.40;73.60
70107;DHT22;57473;37.508;15.080;2023-02-28T06:23:06;13.50;73.50
70107;DHT22;57473;37.508;15.080;2023-02-28T06:25:34;13.60;73.70
70107;DHT22;57473;37.508;15.080;2023-02-28T06:28:01;13.60;73.70
70107;DHT22;57473;37.508;15.080;2023-02-28T06:30:28;13.70;73.80
70107;DHT22;57473;37.508;15.080;2023-02-28T06:32:56;13.70;74.00
70107;DHT22;57473;37.508;15.080;2023-02-28T06:35:24;13.80;74.40
70107;DHT22;57473;37.508;15.080;2023-02-28T06:37:51;13.90;74.40
70107;DHT22;57473;37.508;15.080;2023-02-28T06:40:19;14.00;74.90
70107;DHT22;57473;37.508;15.080;2023-02-28T06:42:46;14.20;74.60
70107;DHT22;57473;37.508;15.080;2023-02-28T06:45:13;14.30;75.40
70107;DHT22;57473;37.508;15.080;2023-02-28T06:47:41;14.50;75.50
70107;DHT22;57473;37.508;15.080;2023-02-28T06:50:12;14.60;75.70
70107;DHT22;57473;37.508;15.080;2023-02-28T06:52:40;14.60;76.30
70107;DHT22;57473;37.508;15.080;2023-02-28T06:55:07;14.70;77.00
70107;DHT22;57473;37.508;15.080;2023-02-28T06:57:36;14.90;78.90
70107;DHT22;57473;37.508;15.080;2023-02-28T07:00:08;15.10;79.50
70107;DHT22;57473;37.508;15.080;2023-02-28T07:02:36;15.20;80.40
70107;DHT22;57473;37.508;15.080;2023-02-28T07:05:05;15.40;80.90
70107;DHT22;57473;37.508;15.080;2023-02-28T07:07:33;15.50;81.90
70107;DHT22;57473;37.508;15.080;2023-02-28T07:10:01;15.60;81.80
70107;DHT22;57473;37.508;15.080;2023-02-28T07:12:28;15.70;81.30
70107;DHT22;57473;37.508;15.080;2023-02-28T07:14:55;15.70;81.10
70107;DHT22;57473;37.508;15.080;2023-02-28T07:17:24;15.70;81.20
70107;DHT22;57473;37.508;15.080;2023-02-28T07:19:51;15.70;81.80
70107;DHT22;57473;37.508;15.080;2023-02-28T07:22:18;15.60;82.70
70107;DHT22;57473;37.508;15.080;2023-02-28T07:24:45;15.60;82.90
70107;DHT22;57473;37.508;15.080;2023-02-28T07:27:13;15.60;84.80
70107;DHT22;57473;37.508;15.080;2023-02-28T07:29:50;15.50;86.40
70107;DHT22;57473;37.508;15.080;2023-02-28T07:32:18;15.50;88.10
70107;DHT22;57473;37.508;15.080;2023-02-28T07:34:46;15.60;89.10
70107;DHT22;57473;37.508;15.080;2023-02-28T07:37:13;15.70;89.90
70107;DHT22;57473;37.508;15.080;2023-02-28T07:39:41;15.70;89.70
70107;DHT22;57473;37.508;15.080;2023-02-28T07:42:12;15.90;89.20
70107;DHT22;57473;37.508;15.080;2023-02-28T07:44:40;16.00;88.70
70107;DHT22;57473;37.508;15.080;2023-02-28T07:47:08;16.10;88.20
70107;DHT22;57473;37.508;15.080;2023-02-28T07:49:37;16.10;88.00
70107;DHT22;57473;37.508;15.080;2023-02-28T07:52:05;16.20;88.10
70107;DHT22;57473;37.508;15.080;2023-02-28T07:54:33;16.10;87.80
70107;DHT22;57473;37.508;15.080;2023-02-28T07:57:01;16.20;87.90
70107;DHT22;57473;37.508;15.080;2023-02-28T07:59:28;16.10;88.60
70107;DHT22;57473;37.508;15.080;2023-02-28T08:01:58;16.10;88.70
70107;DHT22;57473;37.508;15.080;2023-02-28T08:04:26;16.20;88.60
70107;DHT22;57473;37.508;15.080;2023-02-28T08:06:53;16.30;88.10
70107;DHT22;57473;37.508;15.080;2023-02-28T08:09:20;16.40;87.80
70107;DHT22;57473;37.508;15.080;2023-02-28T08:11:48;16.50;86.90
70107;DHT22;57473;37.508;15.080;2023-02-28T08:14:15;16.60;86.70
70107;DHT22;57473;37.508;15.080;2023-02-28T08:16:42;16.60;87.00
70107;DHT22;57473;37.508;15.080;2023-02-28T08:19:09;16.60;86.50
70107;DHT22;57473;37.508;15.080;2023-02-28T08:21:37;16.70;85.50
70107;DHT22;57473;37.508;15.080;2023-02-28T08:24:04;16.80;85.20
70107;DHT22;57473;37.508;15.080;2023-02-28T08:26:32;16.70;85.80
70107;DHT22;57473;37.508;15.080;2023-02-28T08:29:00;16.80;85.20
70107;DHT22;57473;37.508;15.080;2023-02-28T08:31:27;16.90;84.70
70107;DHT22;57473;37.508;15.080;2023-02-28T08:33:55;16.80;84.90
70107;DHT22;57473;37.508;15.080;2023-02-28T08:36:26;16.70;85.70
70107;DHT22;57473;37.508;15.080;2023-02-28T08:38:57;16.80;85.50
70107;DHT22;57473;37.508;15.080;2023-02-28T08:41:25;16.80;85.00
70107;DHT22;57473;37.508;15.080;2023-02-28T08:43:53;16.90;84.70
70107;DHT22;57473;37.508;15.080;2023-02-28T08:46:20;16.80;84.20
70107;DHT22;57473;37.508;15.080;2023-02-28T08:48:52;16.80;84.80
70107;DHT22;57473;37.508;15.080;2023-02-28T08:51:20;16.70;85.00
70107;DHT22;57473;37.508;15.080;2023-02-28T08:53:55;16.60;85.80
70107;DHT22;57473;37.508;15.080;2023-02-28T08:56:23;16.50;87.00
70107;DHT22;57473;37.508;15.080;2023-02-28T08:58:51;16.40;89.10
70107;DHT22;57473;37.508;15.080;2023-02-28T09:01:21;16.40;90.30
70107;DHT22;57473;37.508;15.080;2023-02-28T09:03:50;16.30;91.60
70107;DHT22;57473;37.508;15.080;2023-02-28T09:06:18;16.30;93.00
70107;DHT22;57473;37.508;15.080;2023-02-28T09:08:46;16.30;94.40
70107;DHT22;57473;37.508;15.080;2023-02-28T09:11:14;16.50;93.60
70107;DHT22;57473;37.508;15.080;2023-02-28T09:13:41;16.50;94.00
70107;DHT22;57473;37.508;15.080;2023-02-28T09:16:12;16.60;94.30
70107;DHT22;57473;37.508;15.080;2023-02-28T09:18:40;16.80;92.80
70107;DHT22;57473;37.508;15.080;2023-02-28T09:21:09;16.70;93.50
70107;DHT22;57473;37.508;15.080;2023-02-28T09:23:36;16.70;93.20
70107;DHT22;57473;37.508;15.080;2023-02-28T09:26:07;16.70;92.80
70107;DHT22;57473;37.508;15.080;2023-02-28T09:28:34;16.80;93.00
70107;DHT22;57473;37.508;15.080;2023-02-28T09:31:01;16.80;93.20
70107;DHT22;57473;37.508;15.080;2023-02-28T09:33:32;16.70;94.00
70107;DHT22;57473;37.508;15.080;2023-02-28T09:36:02;16.50;95.40
70107;DHT22;57473;37.508;15.080;2023-02-28T09:38:30;16.50;95.10
70107;DHT22;57473;37.508;15.080;2023-02-28T09:41:23;16.30;97.20
70107;DHT22;57473;37.508;15.080;2023-02-28T09:43:57;16.50;96.30
70107;DHT22;57473;37.508;15.080;2023-02-28T09:46:38;16.60;95.30
70107;DHT22;57473;37.508;15.080;2023-02-28T09:49:14;16.50;95.80
70107;DHT22;57473;37.508;15.080;2023-02-28T09:54:21;16.40;97.00
70107;DHT22;57473;37.508;15.080;2023-02-28T10:04:52;16.40;96.20
70107;DHT22;57473;37.508;15.080;2023-02-28T10:08:18;16.40;95.00
70107;DHT22;57473;37.508;15.080;2023-02-28T10:13:02;16.30;95.70
70107;DHT22;57473;37.508;15.080;2023-02-28T10:15:32;16.30;96.10
70107;DHT22;57473;37.508;15.080;2023-02-28T10:18:04;16.50;95.30
70107;DHT22;57473;37.508;15.080;2023-02-28T10:20:53;16.40;94.10
70107;DHT22;57473;37.508;15.080;2023-02-28T10:23:33;16.50;94.20
70107;DHT22;57473;37.508;15.080;2023-02-28T10:26:11;16.70;94.60
70107;DHT22;57473;37.508;15.080;2023-02-28T10:28:39;17.10;92.10
70107;DHT22;57473;37.508;15.080;2023-02-28T10:31:19;17.30;90.50
70107;DHT22;57473;37.508;15.080;2023-02-28T10:33:47;17.20;88.80
70107;DHT22;57473;37.508;15.080;2023-02-28T10:36:18;17.30;88.10
70107;DHT22;57473;37.508;15.080;2023-02-28T10:38:47;17.20;87.20
70107;DHT22;57473;37.508;15.080;2023-02-28T10:41:26;17.40;85.00
70107;DHT22;57473;37.508;15.080;2023-02-28T10:44:13;17.70;83.80
70107;DHT22;57473;37.508;15.080;2023-02-28T10:46:41;17.80;82.10
70107;DHT22;57473;37.508;15.080;2023-02-28T10:49:28;17.70;81.30
70107;DHT22;57473;37.508;15.080;2023-02-28T10:51:58;18.10;78.90
70107;DHT22;57473;37.508;15.080;2023-02-28T10:54:34;18.20;76.40
70107;DHT22;57473;37.508;15.080;2023-02-28T10:59:36;18.00;77.30
70107;DHT22;57473;37.508;15.080;2023-02-28T11:05:00;18.10;75.90
70107;DHT22;57473;37.508;15.080;2023-02-28T11:07:28;18.20;75.60
70107;DHT22;57473;37.508;15.080;2023-02-28T11:10:19;18.20;75.40
70107;DHT22;57473;37.508;15.080;2023-02-28T11:12:48;18.20;73.20
70107;DHT22;57473;37.508;15.080;2023-02-28T11:15:29;18.10;73.50
70107;DHT22;57473;37.508;15.080;2023-02-28T11:20:39;17.90;75.90
70107;DHT22;57473;37.508;15.080;2023-02-28T11:23:12;18.00;75.60
70107;DHT22;57473;37.508;15.080;2023-02-28T11:25:51;18.10;75.20
70107;DHT22;57473;37.508;15.080;2023-02-28T11:28:39;17.90;75.60
70107;DHT22;57473;37.508;15.080;2023-02-28T11:33:51;17.70;77.30
70107;DHT22;57473;37.508;15.080;2023-02-28T11:36:24;17.50;79.70
70107;DHT22;57473;37.508;15.080;2023-02-28T11:39:12;17.40;80.50
70107;DHT22;57473;37.508;15.080;2023-02-28T11:44:31;17.20;80.80
70107;DHT22;57473;37.508;15.080;2023-02-28T11:50:13;17.50;80.30
70107;DHT22;57473;37.508;15.080;2023-02-28T11:55:38;17.30;79.80
70107;DHT22;57473;37.508;15.080;2023-02-28T12:06:36;17.80;78.60
70107;DHT22;57473;37.508;15.080;2023-02-28T12:12:21;17.80;79.60
70107;DHT22;57473;37.508;15.080;2023-02-28T12:26:36;18.90;73.20
70107;DHT22;57473;37.508;15.080;2023-02-28T12:29:19;19.40;71.50
70107;DHT22;57473;37.508;15.080;2023-02-28T12:31:59;19.60;71.00
70107;DHT22;57473;37.508;15.080;2023-02-28T12:34:32;19.90;68.80
70107;DHT22;57473;37.508;15.080;2023-02-28T12:37:51;19.30;71.40
70107;DHT22;57473;37.508;15.080;2023-02-28T12:39:55;19.10;71.50
70107;DHT22;57473;37.508;15.080;2023-02-28T12:42:32;18.90;73.00
70107;DHT22;57473;37.508;15.080;2023-02-28T12:45:07;19.00;72.70
70107;DHT22;57473;37.508;15.080;2023-02-28T12:47:38;19.10;72.50
70107;DHT22;57473;37.508;15.080;2023-02-28T12:50:11;18.90;71.90
70107;DHT22;57473;37.508;15.080;2023-02-28T12:52:56;18.60;72.50
70107;DHT22;57473;37.508;15.080;2023-02-28T12:55:54;18.50;73.20
70107;DHT22;57473;37.508;15.080;2023-02-28T12:58:43;18.40;72.20
70107;DHT22;57473;37.508;15.080;2023-02-28T13:01:36;18.30;72.80
70107;DHT22;57473;37.508;15.080;2023-02-28T13:07:40;18.20;73.70
70107;DHT22;57473;37.508;15.080;2023-02-28T13:10:13;18.10;74.30
70107;DHT22;57473;37.508;15.080;2023-02-28T13:12:54;18.70;71.80
70107;DHT22;57473;37.508;15.080;2023-02-28T13:15:27;19.30;68.80
70107;DHT22;57473;37.508;15.080;2023-02-28T13:18:02;19.20;68.30
70107;DHT22;57473;37.508;15.080;2023-02-28T13:20:35;19.00;70.10
70107;DHT22;57473;37.508;15.080;2023-02-28T13:23:03;18.80;70.00
70107;DHT22;57473;37.508;15.080;2023-02-28T13:28:10;19.20;67.40
70107;DHT22;57473;37.508;15.080;2023-02-28T13:38:44;20.20;60.70
70107;DHT22;57473;37.508;15.080;2023-02-28T14:06:23;18.70;57.20
70107;DHT22;57473;37.508;15.080;2023-02-28T14:09:06;18.50;57.90
70107;DHT22;57473;37.508;15.080;2023-02-28T14:11:43;18.40;56.50
70107;DHT22;57473;37.508;15.080;2023-02-28T14:17:08;18.20;54.00
70107;DHT22;57473;37.508;15.080;2023-02-28T14:19:41;18.20;54.00
70107;DHT22;57473;37.508;15.080;2023-02-28T14:22:40;18.10;54.50
70107;DHT22;57473;37.508;15.080;2023-02-28T14:28:18;17.80;57.40
70107;DHT22;57473;37.508;15.080;2023-02-28T14:31:13;17.60;57.00
70107;DHT22;57473;37.508;15.080;2023-02-28T14:33:48;17.60;57.30
70107;DHT22;57473;37.508;15.080;2023-02-28T14:36:36;17.50;58.30
70107;DHT22;57473;37.508;15.080;2023-02-28T14:39:14;17.60;60.30
70107;DHT22;57473;37.508;15.080;2023-02-28T14:41:44;17.80;58.40
70107;DHT22;57473;37.508;15.080;2023-02-28T14:46:53;17.90;58.10
70107;DHT22;57473;37.508;15.080;2023-02-28T14:49:30;17.90;59.20
70107;DHT22;57473;37.508;15.080;2023-02-28T14:52:07;17.80;63.20
70107;DHT22;57473;37.508;15.080;2023-02-28T14:54:40;17.50;67.80
70107;DHT22;57473;37.508;15.080;2023-02-28T14:57:34;17.40;67.80
70107;DHT22;57473;37.508;15.080;2023-02-28T15:00:26;17.20;68.30
70107;DHT22;57473;37.508;15.080;2023-02-28T15:02:55;17.10;67.40
70107;DHT22;57473;37.508;15.080;2023-02-28T15:05:28;17.00;66.70
70107;DHT22;57473;37.508;15.080;2023-02-28T15:08:12;16.90;70.40
70107;DHT22;57473;37.508;15.080;2023-02-28T15:10:49;16.70;73.40
70107;DHT22;57473;37.508;15.080;2023-02-28T15:13:18;16.60;73.30
70107;DHT22;57473;37.508;15.080;2023-02-28T15:15:59;16.40;73.40
70107;DHT22;57473;37.508;15.080;2023-02-28T15:21:20;16.40;85.00
70107;DHT22;57473;37.508;15.080;2023-02-28T15:23:54;16.30;88.20
70107;DHT22;57473;37.508;15.080;2023-02-28T15:26:27;16.20;90.60
70107;DHT22;57473;37.508;15.080;2023-02-28T15:29:04;16.10;92.20
70107;DHT22;57473;37.508;15.080;2023-02-28T15:31:40;16.00;94.60
70107;DHT22;57473;37.508;15.080;2023-02-28T15:34:39;16.00;95.40
70107;DHT22;57473;37.508;15.080;2023-02-28T15:37:45;16.00;96.60
70107;DHT22;57473;37.508;15.080;2023-02-28T15:40:23;15.90;97.20
70107;DHT22;57473;37.508;15.080;2023-02-28T15:48:32;15.70;97.80
70107;DHT22;57473;37.508;15.080;2023-02-28T15:53:48;15.80;97.90
70107;DHT22;57473;37.508;15.080;2023-02-28T15:56:30;15.80;97.40
70107;DHT22;57473;37.508;15.080;2023-02-28T15:59:05;15.80;96.20
70107;DHT22;57473;37.508;15.080;2023-02-28T16:01:37;15.80;94.40
70107;DHT22;57473;37.508;15.080;2023-02-28T16:04:18;15.80;93.30
70107;DHT22;57473;37.508;15.080;2023-02-28T16:07:11;15.70;93.30
70107;DHT22;57473;37.508;15.080;2023-02-28T16:09:39;15.70;93.10
70107;DHT22;57473;37.508;15.080;2023-02-28T16:12:08;15.70;92.50
70107;DHT22;57473;37.508;15.080;2023-02-28T16:14:40;15.70;91.50
70107;DHT22;57473;37.508;15.080;2023-02-28T16:17:18;15.60;91.20
70107;DHT22;57473;37.508;15.080;2023-02-28T16:19:46;15.50;91.60
70107;DHT22;57473;37.508;15.080;2023-02-28T16:22:14;15.50;92.10
70107;DHT22;57473;37.508;15.080;2023-02-28T16:24:41;15.50;92.20
70107;DHT22;57473;37.508;15.080;2023-02-28T16:27:45;15.50;92.40
70107;DHT22;57473;37.508;15.080;2023-02-28T16:30:21;15.40;92.90
70107;DHT22;57473;37.508;15.080;2023-02-28T16:32:50;15.40;93.10
70107;DHT22;57473;37.508;15.080;2023-02-28T16:35:19;15.40;93.60
70107;DHT22;57473;37.508;15.080;2023-02-28T16:37:47;15.30;94.70
70107;DHT22;57473;37.508;15.080;2023-02-28T16:40:20;15.20;95.90
70107;DHT22;57473;37.508;15.080;2023-02-28T16:42:50;15.20;96.40
70107;DHT22;57473;37.508;15.080;2023-02-28T16:45:24;15.20;97.20
70107;DHT22;57473;37.508;15.080;2023-02-28T16:47:53;15.20;97.40
70107;DHT22;57473;37.508;15.080;2023-02-28T16:50:25;15.20;97.70
70107;DHT22;57473;37.508;15.080;2023-02-28T16:52:53;15.20;98.50
70107;DHT22;57473;37.508;15.080;2023-02-28T16:55:24;15.10;99.30
70107;DHT22;57473;37.508;15.080;2023-02-28T16:57:58;15.00;99.90
70107;DHT22;57473;37.508;15.080;2023-02-28T17:00:28;15.00;99.90
70107;DHT22;57473;37.508;15.080;2023-02-28T17:02:56;15.00;99.90
70107;DHT22;57473;37.508;15.080;2023-02-28T17:05:24;15.00;99.90
70107;DHT22;57473;37.508;15.080;2023-02-28T17:07:52;15.00;99.90
70107;DHT22;57473;37.508;15.080;2023-02-28T17:10:23;15.00;99.90
70107;DHT22;57473;37.508;15.080;2023-02-28T17:12:51;15.00;99.90
70107;DHT22;57473;37.508;15.080;2023-02-28T17:15:21;15.00;99.90
70107;DHT22;57473;37.508;15.080;2023-02-28T17:17:49;15.00;99.90
70107;DHT22;57473;37.508;15.080;2023-02-28T17:20:19;15.00;99.90
70107;DHT22;57473;37.508;15.080;2023-02-28T17:22:50;14.90;99.90
70107;DHT22;57473;37.508;15.080;2023-02-28T17:25:18;14.90;99.90
70107;DHT22;57473;37.508;15.080;2023-02-28T17:27:46;14.90;99.90
70107;DHT22;57473;37.508;15.080;2023-02-28T17:30:23;14.90;99.90
70107;DHT22;57473;37.508;15.080;2023-02-28T17:32:52;14.90;99.90
70107;DHT22;57473;37.508;15.080;2023-02-28T17:35:21;14.90;99.90
70107;DHT22;57473;37.508;15.080;2023-02-28T17:37:49;14.90;99.90
70107;DHT22;57473;37.508;15.080;2023-02-28T17:40:22;14.90;99.90
70107;DHT22;57473;37.508;15.080;2023-02-28T17:42:49;14.90;99.90
70107;DHT22;57473;37.508;15.080;2023-02-28T17:45:19;14.80;99.90
70107;DHT22;57473;37.508;15.080;2023-02-28T17:47:49;14.80;99.90
70107;DHT22;57473;37.508;15.080;2023-02-28T17:50:20;14.80;99.90
70107;DHT22;57473;37.508;15.080;2023-02-28T17:52:49;14.80;99.90
70107;DHT22;57473;37.508;15.080;2023-02-28T17:55:17;14.80;99.90
70107;DHT22;57473;37.508;15.080;2023-02-28T17:57:46;14.80;99.90
70107;DHT22;57473;37.508;15.080;2023-02-28T18:00:15;14.80;99.90
70107;DHT22;57473;37.508;15.080;2023-02-28T18:02:44;14.80;99.90
70107;DHT22;57473;37.508;15.080;2023-02-28T18:05:12;14.80;99.90
70107;DHT22;57473;37.508;15.080;2023-02-28T18:07:40;14.80;99.90
70107;DHT22;57473;37.508;15.080;2023-02-28T18:10:14;14.90;99.90
70107;DHT22;57473;37.508;15.080;2023-02-28T18:12:43;14.80;99.90
70107;DHT22;57473;37.508;15.080;2023-02-28T18:15:10;14.80;99.90
70107;DHT22;57473;37.508;15.080;2023-02-28T18:17:38;14.80;99.90